sensor_id;sensor_type;location;lat;lon;timestamp;P1;durP1;ratioP1;P2;durP2;ratioP2
850;SDS011;412;51.400;7.480;2023-04-23T00:01:50;18.57;;;16.57;;
850;SDS011;412;51.400;7.480;2023-04-23T00:04:18;19.10;;;17.10;;
850;SDS011;412;51.400;7.480;2023-04-23T00:06:46;18.30;;;16.30;;
850;SDS011;412;51.400;7.480;2023-04-23T00:09:13;19.10;;;17.10;;
850;SDS011;412;51.400;7.480;2023-04-23T00:11:39;18.73;;;16.77;;
850;SDS011;412;51.400;7.480;2023-04-23T00:14:05;18.30;;;16.40;;
850;SDS011;412;51.400;7.480;2023-04-23T00:16:31;22.53;;;17.60;;
850;SDS011;412;51.400;7.480;2023-04-23T00:18:57;18.93;;;16.93;;
850;SDS011;412;51.400;7.480;2023-04-23T00:21:23;20.17;;;17.47;;
850;SDS011;412;51.400;7.480;2023-04-23T00:23:49;19.97;;;18.00;;
850;SDS011;412;51.400;7.480;2023-04-23T00:26:14;19.60;;;17.60;;
850;SDS011;412;51.400;7.480;2023-04-23T00:28:42;19.53;;;17.43;;
850;SDS011;412;51.400;7.480;2023-04-23T00:31:08;21.93;;;18.57;;
850;SDS011;412;51.400;7.480;2023-04-23T00:33:33;20.50;;;18.40;;
850;SDS011;412;51.400;7.480;2023-04-23T00:35:59;21.13;;;18.17;;
850;SDS011;412;51.400;7.480;2023-04-23T00:38:25;21.13;;;18.90;;
850;SDS011;412;51.400;7.480;2023-04-23T00:40:51;22.10;;;18.30;;
850;SDS011;412;51.400;7.480;2023-04-23T00:43:17;21.10;;;18.90;;
850;SDS011;412;51.400;7.480;2023-04-23T00:45:43;20.70;;;18.33;;
850;SDS011;412;51.400;7.480;2023-04-23T00:48:09;21.90;;;18.70;;
850;SDS011;412;51.400;7.480;2023-04-23T00:50:36;21.10;;;18.83;;
850;SDS011;412;51.400;7.480;2023-04-23T00:53:02;19.83;;;17.47;;
850;SDS011;412;51.400;7.480;2023-04-23T00:55:28;21.97;;;19.60;;
850;SDS011;412;51.400;7.480;2023-04-23T00:57:54;21.07;;;18.87;;
850;SDS011;412;51.400;7.480;2023-04-23T01:00:20;20.37;;;18.13;;
850;SDS011;412;51.400;7.480;2023-04-23T01:02:46;20.93;;;18.70;;
850;SDS011;412;51.400;7.480;2023-04-23T01:05:13;20.30;;;18.23;;
850;SDS011;412;51.400;7.480;2023-04-23T01:07:41;23.80;;;19.30;;
850;SDS011;412;51.400;7.480;2023-04-23T01:10:08;20.53;;;17.80;;
850;SDS011;412;51.400;7.480;2023-04-23T01:12:35;22.17;;;18.97;;
850;SDS011;412;51.400;7.480;2023-04-23T01:15:02;20.77;;;18.47;;
850;SDS011;412;51.400;7.480;2023-04-23T01:17:29;22.37;;;19.10;;
850;SDS011;412;51.400;7.480;2023-04-23T01:19:56;20.90;;;18.13;;
850;SDS011;412;51.400;7.480;2023-04-23T01:22:22;21.77;;;19.23;;
850;SDS011;412;51.400;7.480;2023-04-23T01:24:51;21.83;;;19.47;;
850;SDS011;412;51.400;7.480;2023-04-23T01:27:17;20.93;;;18.63;;
850;SDS011;412;51.400;7.480;2023-04-23T01:29:44;20.93;;;18.50;;
850;SDS011;412;51.400;7.480;2023-04-23T01:32:11;23.20;;;18.80;;
850;SDS011;412;51.400;7.480;2023-04-23T01:34:37;25.00;;;19.20;;
850;SDS011;412;51.400;7.480;2023-04-23T01:37:04;20.80;;;18.23;;
850;SDS011;412;51.400;7.480;2023-04-23T01:39:30;24.30;;;19.90;;
850;SDS011;412;51.400;7.480;2023-04-23T01:41:55;21.73;;;19.43;;
850;SDS011;412;51.400;7.480;2023-04-23T01:44:22;23.07;;;19.10;;
850;SDS011;412;51.400;7.480;2023-04-23T01:46:48;22.50;;;19.17;;
850;SDS011;412;51.400;7.480;2023-04-23T01:49:13;22.60;;;19.40;;
850;SDS011;412;51.400;7.480;2023-04-23T01:51:41;24.50;;;19.33;;
850;SDS011;412;51.400;7.480;2023-04-23T01:54:07;22.30;;;19.90;;
850;SDS011;412;51.400;7.480;2023-04-23T01:56:33;20.30;;;18.13;;
850;SDS011;412;51.400;7.480;2023-04-23T01:59:00;22.50;;;18.97;;
850;SDS011;412;51.400;7.480;2023-04-23T02:01:39;20.97;;;18.60;;
850;SDS011;412;51.400;7.480;2023-04-23T02:04:06;21.60;;;19.23;;
850;SDS011;412;51.400;7.480;2023-04-23T02:06:31;20.63;;;18.37;;
850;SDS011;412;51.400;7.480;2023-04-23T02:08:57;21.67;;;19.43;;
850;SDS011;412;51.400;7.480;2023-04-23T02:11:23;20.47;;;18.37;;
850;SDS011;412;51.400;7.480;2023-04-23T02:13:49;21.00;;;17.90;;
850;SDS011;412;51.400;7.480;2023-04-23T02:16:14;21.30;;;18.97;;
850;SDS011;412;51.400;7.480;2023-04-23T02:18:40;21.20;;;18.17;;
850;SDS011;412;51.400;7.480;2023-04-23T02:21:06;19.93;;;17.83;;
850;SDS011;412;51.400;7.480;2023-04-23T02:23:32;21.07;;;18.80;;
850;SDS011;412;51.400;7.480;2023-04-23T02:25:58;20.30;;;18.13;;
850;SDS011;412;51.400;7.480;2023-04-23T02:28:23;22.63;;;19.00;;
850;SDS011;412;51.400;7.480;2023-04-23T02:30:49;22.50;;;18.37;;
850;SDS011;412;51.400;7.480;2023-04-23T02:33:15;22.00;;;18.37;;
850;SDS011;412;51.400;7.480;2023-04-23T02:35:41;21.17;;;18.13;;
850;SDS011;412;51.400;7.480;2023-04-23T02:38:06;18.93;;;16.83;;
850;SDS011;412;51.400;7.480;2023-04-23T02:40:32;20.10;;;16.27;;
850;SDS011;412;51.400;7.480;2023-04-23T02:42:58;20.13;;;17.97;;
850;SDS011;412;51.400;7.480;2023-04-23T02:45:23;21.77;;;16.70;;
850;SDS011;412;51.400;7.480;2023-04-23T02:47:49;21.47;;;18.93;;
850;SDS011;412;51.400;7.480;2023-04-23T02:50:17;19.50;;;17.50;;
850;SDS011;412;51.400;7.480;2023-04-23T02:52:43;19.93;;;17.70;;
850;SDS011;412;51.400;7.480;2023-04-23T02:55:09;21.10;;;18.23;;
850;SDS011;412;51.400;7.480;2023-04-23T02:57:35;20.50;;;17.63;;
850;SDS011;412;51.400;7.480;2023-04-23T03:00:01;19.47;;;17.40;;
850;SDS011;412;51.400;7.480;2023-04-23T03:02:31;21.17;;;18.00;;
850;SDS011;412;51.400;7.480;2023-04-23T03:04:56;20.47;;;18.23;;
850;SDS011;412;51.400;7.480;2023-04-23T03:07:22;19.93;;;17.90;;
850;SDS011;412;51.400;7.480;2023-04-23T03:09:48;22.30;;;18.50;;
850;SDS011;412;51.400;7.480;2023-04-23T03:12:13;22.37;;;19.97;;
850;SDS011;412;51.400;7.480;2023-04-23T03:14:40;21.40;;;18.70;;
850;SDS011;412;51.400;7.480;2023-04-23T03:17:05;21.93;;;19.20;;
850;SDS011;412;51.400;7.480;2023-04-23T03:19:31;22.83;;;18.77;;
850;SDS011;412;51.400;7.480;2023-04-23T03:21:57;23.83;;;18.93;;
850;SDS011;412;51.400;7.480;2023-04-23T03:24:23;20.70;;;18.07;;
850;SDS011;412;51.400;7.480;2023-04-23T03:26:48;19.70;;;17.60;;
850;SDS011;412;51.400;7.480;2023-04-23T03:29:14;20.67;;;18.20;;
850;SDS011;412;51.400;7.480;2023-04-23T03:31:40;21.10;;;17.80;;
850;SDS011;412;51.400;7.480;2023-04-23T03:34:09;21.33;;;17.20;;
850;SDS011;412;51.400;7.480;2023-04-23T03:36:34;18.27;;;16.30;;
850;SDS011;412;51.400;7.480;2023-04-23T03:39:00;18.50;;;16.57;;
850;SDS011;412;51.400;7.480;2023-04-23T03:41:26;23.17;;;17.37;;
850;SDS011;412;51.400;7.480;2023-04-23T03:43:52;21.53;;;19.10;;
850;SDS011;412;51.400;7.480;2023-04-23T03:46:17;18.43;;;16.57;;
850;SDS011;412;51.400;7.480;2023-04-23T03:48:43;24.97;;;18.87;;
850;SDS011;412;51.400;7.480;2023-04-23T03:51:09;20.57;;;18.30;;
850;SDS011;412;51.400;7.480;2023-04-23T03:53:37;21.23;;;17.27;;
850;SDS011;412;51.400;7.480;2023-04-23T03:56:03;21.77;;;19.40;;
850;SDS011;412;51.400;7.480;2023-04-23T03:58:28;21.50;;;17.83;;
850;SDS011;412;51.400;7.480;2023-04-23T04:00:54;20.13;;;17.93;;
850;SDS011;412;51.400;7.480;2023-04-23T04:03:20;19.80;;;17.77;;
850;SDS011;412;51.400;7.480;2023-04-23T04:05:45;19.23;;;17.23;;
850;SDS011;412;51.400;7.480;2023-04-23T04:08:11;20.80;;;18.60;;
850;SDS011;412;51.400;7.480;2023-04-23T04:10:37;22.33;;;18.90;;
850;SDS011;412;51.400;7.480;2023-04-23T04:13:02;21.93;;;18.40;;
850;SDS011;412;51.400;7.480;2023-04-23T04:15:28;19.53;;;17.43;;
850;SDS011;412;51.400;7.480;2023-04-23T04:17:54;19.50;;;17.40;;
850;SDS011;412;51.400;7.480;2023-04-23T04:20:20;20.63;;;17.53;;
850;SDS011;412;51.400;7.480;2023-04-23T04:22:46;22.70;;;18.93;;
850;SDS011;412;51.400;7.480;2023-04-23T04:25:12;20.97;;;18.63;;
850;SDS011;412;51.400;7.480;2023-04-23T04:27:38;19.97;;;17.90;;
850;SDS011;412;51.400;7.480;2023-04-23T04:30:06;22.23;;;18.77;;
850;SDS011;412;51.400;7.480;2023-04-23T04:32:33;21.07;;;18.70;;
850;SDS011;412;51.400;7.480;2023-04-23T04:34:59;21.67;;;19.33;;
850;SDS011;412;51.400;7.480;2023-04-23T04:37:25;22.83;;;20.30;;
850;SDS011;412;51.400;7.480;2023-04-23T04:39:52;20.70;;;17.90;;
850;SDS011;412;51.400;7.480;2023-04-23T04:42:18;20.03;;;17.63;;
850;SDS011;412;51.400;7.480;2023-04-23T04:44:44;19.87;;;17.77;;
850;SDS011;412;51.400;7.480;2023-04-23T04:47:10;22.80;;;19.67;;
850;SDS011;412;51.400;7.480;2023-04-23T04:49:37;20.70;;;17.90;;
850;SDS011;412;51.400;7.480;2023-04-23T04:52:03;23.07;;;19.80;;
850;SDS011;412;51.400;7.480;2023-04-23T04:54:29;20.37;;;18.00;;
850;SDS011;412;51.400;7.480;2023-04-23T04:56:55;20.90;;;18.70;;
850;SDS011;412;51.400;7.480;2023-04-23T04:59:21;20.70;;;18.50;;
850;SDS011;412;51.400;7.480;2023-04-23T05:01:46;20.10;;;18.00;;
850;SDS011;412;51.400;7.480;2023-04-23T05:04:12;18.90;;;17.10;;
850;SDS011;412;51.400;7.480;2023-04-23T05:06:38;21.00;;;18.87;;
850;SDS011;412;51.400;7.480;2023-04-23T05:09:04;21.70;;;18.67;;
850;SDS011;412;51.400;7.480;2023-04-23T05:11:29;21.57;;;18.73;;
850;SDS011;412;51.400;7.480;2023-04-23T05:13:56;22.27;;;18.87;;
850;SDS011;412;51.400;7.480;2023-04-23T05:16:21;21.47;;;18.30;;
850;SDS011;412;51.400;7.480;2023-04-23T05:18:48;21.47;;;18.30;;
850;SDS011;412;51.400;7.480;2023-04-23T05:21:16;20.33;;;17.97;;
850;SDS011;412;51.400;7.480;2023-04-23T05:23:43;23.33;;;20.40;;
850;SDS011;412;51.400;7.480;2023-04-23T05:26:09;24.50;;;21.53;;
850;SDS011;412;51.400;7.480;2023-04-23T05:28:35;23.50;;;20.50;;
850;SDS011;412;51.400;7.480;2023-04-23T05:31:01;24.47;;;19.83;;
850;SDS011;412;51.400;7.480;2023-04-23T05:33:27;21.93;;;19.07;;
850;SDS011;412;51.400;7.480;2023-04-23T05:35:53;21.10;;;18.23;;
850;SDS011;412;51.400;7.480;2023-04-23T05:38:19;21.50;;;19.20;;
850;SDS011;412;51.400;7.480;2023-04-23T05:40:45;23.40;;;20.03;;
850;SDS011;412;51.400;7.480;2023-04-23T05:43:11;24.13;;;21.53;;
850;SDS011;412;51.400;7.480;2023-04-23T05:45:37;23.07;;;19.67;;
850;SDS011;412;51.400;7.480;2023-04-23T05:48:02;23.23;;;20.73;;
850;SDS011;412;51.400;7.480;2023-04-23T05:50:28;24.07;;;20.77;;
850;SDS011;412;51.400;7.480;2023-04-23T05:52:54;22.10;;;19.70;;
850;SDS011;412;51.400;7.480;2023-04-23T05:55:20;21.50;;;19.20;;
850;SDS011;412;51.400;7.480;2023-04-23T05:57:47;21.30;;;18.90;;
850;SDS011;412;51.400;7.480;2023-04-23T06:00:13;20.03;;;17.90;;
850;SDS011;412;51.400;7.480;2023-04-23T06:02:41;18.70;;;16.70;;
850;SDS011;412;51.400;7.480;2023-04-23T06:05:07;16.83;;;15.03;;
850;SDS011;412;51.400;7.480;2023-04-23T06:07:33;19.60;;;17.50;;
850;SDS011;412;51.400;7.480;2023-04-23T06:09:59;17.17;;;15.37;;
850;SDS011;412;51.400;7.480;2023-04-23T06:12:24;16.77;;;14.97;;
850;SDS011;412;51.400;7.480;2023-04-23T06:14:53;17.43;;;15.37;;
850;SDS011;412;51.400;7.480;2023-04-23T06:17:19;15.40;;;13.90;;
850;SDS011;412;51.400;7.480;2023-04-23T06:19:45;15.77;;;14.27;;
850;SDS011;412;51.400;7.480;2023-04-23T06:22:10;17.57;;;14.37;;
850;SDS011;412;51.400;7.480;2023-04-23T06:24:36;14.07;;;12.67;;
850;SDS011;412;51.400;7.480;2023-04-23T06:27:02;15.07;;;13.53;;
850;SDS011;412;51.400;7.480;2023-04-23T06:29:28;15.50;;;12.90;;
850;SDS011;412;51.400;7.480;2023-04-23T06:31:54;14.20;;;12.93;;
850;SDS011;412;51.400;7.480;2023-04-23T06:34:22;13.47;;;12.13;;
850;SDS011;412;51.400;7.480;2023-04-23T06:36:49;13.30;;;12.00;;
850;SDS011;412;51.400;7.480;2023-04-23T06:39:15;14.13;;;12.83;;
850;SDS011;412;51.400;7.480;2023-04-23T06:41:41;14.10;;;12.70;;
850;SDS011;412;51.400;7.480;2023-04-23T06:44:07;16.17;;;14.50;;
850;SDS011;412;51.400;7.480;2023-04-23T06:46:33;13.93;;;12.60;;
850;SDS011;412;51.400;7.480;2023-04-23T06:48:59;13.30;;;12.00;;
850;SDS011;412;51.400;7.480;2023-04-23T06:51:25;12.20;;;11.00;;
850;SDS011;412;51.400;7.480;2023-04-23T06:53:51;12.70;;;11.50;;
850;SDS011;412;51.400;7.480;2023-04-23T06:56:20;11.63;;;10.70;;
850;SDS011;412;51.400;7.480;2023-04-23T06:58:46;10.30;;;9.40;;
850;SDS011;412;51.400;7.480;2023-04-23T07:01:12;10.90;;;10.00;;
850;SDS011;412;51.400;7.480;2023-04-23T07:03:38;11.87;;;10.67;;
850;SDS011;412;51.400;7.480;2023-04-23T07:06:05;11.97;;;10.90;;
850;SDS011;412;51.400;7.480;2023-04-23T07:08:31;11.63;;;10.63;;
850;SDS011;412;51.400;7.480;2023-04-23T07:10:57;11.43;;;10.40;;
850;SDS011;412;51.400;7.480;2023-04-23T07:13:23;11.40;;;10.30;;
850;SDS011;412;51.400;7.480;2023-04-23T07:15:48;11.57;;;10.50;;
850;SDS011;412;51.400;7.480;2023-04-23T07:18:14;10.40;;;9.50;;
850;SDS011;412;51.400;7.480;2023-04-23T07:20:40;12.10;;;10.50;;
850;SDS011;412;51.400;7.480;2023-04-23T07:23:06;11.93;;;10.83;;
850;SDS011;412;51.400;7.480;2023-04-23T07:25:32;11.10;;;10.20;;
850;SDS011;412;51.400;7.480;2023-04-23T07:27:57;10.77;;;9.77;;
850;SDS011;412;51.400;7.480;2023-04-23T07:30:24;10.93;;;10.03;;
850;SDS011;412;51.400;7.480;2023-04-23T07:32:51;11.97;;;10.90;;
850;SDS011;412;51.400;7.480;2023-04-23T07:35:17;11.40;;;10.50;;
850;SDS011;412;51.400;7.480;2023-04-23T07:37:43;10.60;;;9.80;;
850;SDS011;412;51.400;7.480;2023-04-23T07:40:09;10.90;;;9.03;;
850;SDS011;412;51.400;7.480;2023-04-23T07:42:37;9.63;;;8.63;;
850;SDS011;412;51.400;7.480;2023-04-23T07:45:04;11.07;;;10.03;;
850;SDS011;412;51.400;7.480;2023-04-23T07:47:30;10.07;;;9.27;;
850;SDS011;412;51.400;7.480;2023-04-23T07:49:56;11.33;;;10.43;;
850;SDS011;412;51.400;7.480;2023-04-23T07:52:21;10.50;;;9.80;;
850;SDS011;412;51.400;7.480;2023-04-23T07:54:47;9.67;;;8.97;;
850;SDS011;412;51.400;7.480;2023-04-23T07:57:13;9.93;;;8.93;;
850;SDS011;412;51.400;7.480;2023-04-23T07:59:39;8.40;;;7.63;;
850;SDS011;412;51.400;7.480;2023-04-23T08:02:05;9.10;;;8.30;;
850;SDS011;412;51.400;7.480;2023-04-23T08:04:30;7.53;;;6.93;;
850;SDS011;412;51.400;7.480;2023-04-23T08:06:56;7.23;;;6.70;;
850;SDS011;412;51.400;7.480;2023-04-23T08:09:23;7.43;;;6.83;;
850;SDS011;412;51.400;7.480;2023-04-23T08:11:48;9.40;;;7.10;;
850;SDS011;412;51.400;7.480;2023-04-23T08:14:14;7.77;;;7.10;;
850;SDS011;412;51.400;7.480;2023-04-23T08:16:40;7.07;;;6.50;;
850;SDS011;412;51.400;7.480;2023-04-23T08:19:06;7.67;;;7.00;;
850;SDS011;412;51.400;7.480;2023-04-23T08:21:32;7.53;;;6.50;;
850;SDS011;412;51.400;7.480;2023-04-23T08:23:58;8.17;;;7.50;;
850;SDS011;412;51.400;7.480;2023-04-23T08:26:24;7.43;;;6.63;;
850;SDS011;412;51.400;7.480;2023-04-23T08:28:50;8.37;;;7.50;;
850;SDS011;412;51.400;7.480;2023-04-23T08:31:16;7.70;;;7.00;;
850;SDS011;412;51.400;7.480;2023-04-23T08:33:42;7.47;;;6.87;;
850;SDS011;412;51.400;7.480;2023-04-23T08:36:07;8.10;;;7.40;;
850;SDS011;412;51.400;7.480;2023-04-23T08:38:33;7.70;;;7.10;;
850;SDS011;412;51.400;7.480;2023-04-23T08:40:59;8.20;;;7.43;;
850;SDS011;412;51.400;7.480;2023-04-23T08:43:36;7.17;;;6.53;;
850;SDS011;412;51.400;7.480;2023-04-23T08:46:08;6.73;;;6.13;;
850;SDS011;412;51.400;7.480;2023-04-23T08:48:38;6.67;;;6.17;;
850;SDS011;412;51.400;7.480;2023-04-23T08:51:06;7.30;;;6.80;;
850;SDS011;412;51.400;7.480;2023-04-23T08:53:35;7.30;;;6.80;;
850;SDS011;412;51.400;7.480;2023-04-23T08:56:02;7.80;;;7.30;;
850;SDS011;412;51.400;7.480;2023-04-23T08:58:31;8.60;;;7.90;;
850;SDS011;412;51.400;7.480;2023-04-23T09:00:58;7.70;;;7.00;;
850;SDS011;412;51.400;7.480;2023-04-23T09:03:24;7.00;;;6.50;;
850;SDS011;412;51.400;7.480;2023-04-23T09:05:50;7.20;;;6.40;;
850;SDS011;412;51.400;7.480;2023-04-23T09:08:19;6.20;;;5.70;;
850;SDS011;412;51.400;7.480;2023-04-23T09:10:45;6.00;;;5.60;;
850;SDS011;412;51.400;7.480;2023-04-23T09:13:11;6.10;;;5.53;;
850;SDS011;412;51.400;7.480;2023-04-23T09:15:40;6.80;;;6.17;;
850;SDS011;412;51.400;7.480;2023-04-23T09:18:09;6.20;;;5.70;;
850;SDS011;412;51.400;7.480;2023-04-23T09:20:35;5.70;;;5.20;;
850;SDS011;412;51.400;7.480;2023-04-23T09:23:05;5.40;;;5.10;;
850;SDS011;412;51.400;7.480;2023-04-23T09:25:32;5.27;;;4.87;;
850;SDS011;412;51.400;7.480;2023-04-23T09:27:58;5.03;;;4.63;;
850;SDS011;412;51.400;7.480;2023-04-23T09:30:26;6.00;;;4.60;;
850;SDS011;412;51.400;7.480;2023-04-23T09:32:52;5.77;;;5.27;;
850;SDS011;412;51.400;7.480;2023-04-23T09:35:18;4.53;;;4.17;;
850;SDS011;412;51.400;7.480;2023-04-23T09:37:45;5.73;;;5.33;;
850;SDS011;412;51.400;7.480;2023-04-23T09:40:18;5.33;;;4.93;;
850;SDS011;412;51.400;7.480;2023-04-23T09:42:48;4.37;;;4.07;;
850;SDS011;412;51.400;7.480;2023-04-23T09:45:16;5.40;;;5.10;;
850;SDS011;412;51.400;7.480;2023-04-23T09:47:49;9.60;;;5.67;;
850;SDS011;412;51.400;7.480;2023-04-23T09:50:17;5.30;;;4.87;;
850;SDS011;412;51.400;7.480;2023-04-23T09:52:43;5.07;;;4.73;;
850;SDS011;412;51.400;7.480;2023-04-23T09:55:09;5.13;;;4.73;;
850;SDS011;412;51.400;7.480;2023-04-23T09:57:39;4.87;;;4.47;;
850;SDS011;412;51.400;7.480;2023-04-23T10:00:12;54.17;;;33.43;;
850;SDS011;412;51.400;7.480;2023-04-23T10:02:53;18.80;;;14.50;;
850;SDS011;412;51.400;7.480;2023-04-23T10:05:19;7.80;;;7.00;;
850;SDS011;412;51.400;7.480;2023-04-23T10:07:47;5.07;;;4.67;;
850;SDS011;412;51.400;7.480;2023-04-23T10:10:13;4.57;;;4.27;;
850;SDS011;412;51.400;7.480;2023-04-23T10:12:43;4.60;;;4.27;;
850;SDS011;412;51.400;7.480;2023-04-23T10:15:10;6.87;;;4.60;;
850;SDS011;412;51.400;7.480;2023-04-23T10:17:37;5.37;;;4.97;;
850;SDS011;412;51.400;7.480;2023-04-23T10:20:07;4.50;;;3.70;;
850;SDS011;412;51.400;7.480;2023-04-23T10:22:34;4.63;;;4.33;;
850;SDS011;412;51.400;7.480;2023-04-23T10:25:05;3.93;;;3.70;;
850;SDS011;412;51.400;7.480;2023-04-23T10:27:36;4.10;;;3.90;;
850;SDS011;412;51.400;7.480;2023-04-23T10:30:04;4.33;;;4.03;;
850;SDS011;412;51.400;7.480;2023-04-23T10:32:32;4.10;;;3.60;;
850;SDS011;412;51.400;7.480;2023-04-23T10:34:58;3.90;;;3.60;;
850;SDS011;412;51.400;7.480;2023-04-23T10:37:24;3.90;;;3.60;;
850;SDS011;412;51.400;7.480;2023-04-23T10:39:53;3.50;;;3.30;;
850;SDS011;412;51.400;7.480;2023-04-23T10:42:20;3.77;;;3.50;;
850;SDS011;412;51.400;7.480;2023-04-23T10:44:47;3.67;;;3.37;;
850;SDS011;412;51.400;7.480;2023-04-23T10:47:15;3.43;;;3.30;;
850;SDS011;412;51.400;7.480;2023-04-23T10:49:42;3.60;;;3.40;;
850;SDS011;412;51.400;7.480;2023-04-23T10:52:12;3.90;;;3.50;;
850;SDS011;412;51.400;7.480;2023-04-23T10:54:40;3.83;;;3.40;;
850;SDS011;412;51.400;7.480;2023-04-23T10:57:07;3.23;;;3.03;;
850;SDS011;412;51.400;7.480;2023-04-23T10:59:38;3.77;;;3.50;;
850;SDS011;412;51.400;7.480;2023-04-23T11:04:32;4.63;;;3.83;;
850;SDS011;412;51.400;7.480;2023-04-23T11:07:08;4.67;;;4.13;;
850;SDS011;412;51.400;7.480;2023-04-23T11:09:42;4.30;;;3.90;;
850;SDS011;412;51.400;7.480;2023-04-23T11:14:54;73.60;;;55.40;;
850;SDS011;412;51.400;7.480;2023-04-23T11:20:13;3.83;;;3.40;;
850;SDS011;412;51.400;7.480;2023-04-23T11:22:43;3.57;;;3.37;;
850;SDS011;412;51.400;7.480;2023-04-23T11:25:10;4.17;;;3.80;;
850;SDS011;412;51.400;7.480;2023-04-23T11:27:44;4.20;;;3.90;;
850;SDS011;412;51.400;7.480;2023-04-23T11:30:11;4.47;;;4.07;;
850;SDS011;412;51.400;7.480;2023-04-23T11:32:45;4.40;;;4.10;;
850;SDS011;412;51.400;7.480;2023-04-23T11:35:16;4.07;;;3.77;;
850;SDS011;412;51.400;7.480;2023-04-23T11:37:44;4.13;;;3.90;;
850;SDS011;412;51.400;7.480;2023-04-23T11:40:12;4.47;;;4.23;;
850;SDS011;412;51.400;7.480;2023-04-23T11:42:46;3.60;;;3.40;;
850;SDS011;412;51.400;7.480;2023-04-23T11:47:45;3.67;;;3.47;;
850;SDS011;412;51.400;7.480;2023-04-23T11:50:16;5.00;;;4.60;;
850;SDS011;412;51.400;7.480;2023-04-23T11:52:43;3.93;;;3.63;;
850;SDS011;412;51.400;7.480;2023-04-23T11:55:09;3.50;;;3.30;;
850;SDS011;412;51.400;7.480;2023-04-23T11:57:40;3.57;;;3.23;;
850;SDS011;412;51.400;7.480;2023-04-23T12:00:14;9.60;;;8.43;;
850;SDS011;412;51.400;7.480;2023-04-23T12:02:51;81.57;;;68.50;;
850;SDS011;412;51.400;7.480;2023-04-23T12:05:18;57.20;;;41.77;;
850;SDS011;412;51.400;7.480;2023-04-23T12:07:49;88.40;;;66.63;;
850;SDS011;412;51.400;7.480;2023-04-23T12:10:19;8.83;;;8.07;;
850;SDS011;412;51.400;7.480;2023-04-23T12:12:52;3.63;;;3.33;;
850;SDS011;412;51.400;7.480;2023-04-23T12:15:18;3.67;;;3.47;;
850;SDS011;412;51.400;7.480;2023-04-23T12:17:48;4.27;;;3.50;;
850;SDS011;412;51.400;7.480;2023-04-23T12:20:18;6.20;;;4.10;;
850;SDS011;412;51.400;7.480;2023-04-23T12:22:45;8.93;;;7.90;;
850;SDS011;412;51.400;7.480;2023-04-23T12:25:11;4.90;;;4.60;;
850;SDS011;412;51.400;7.480;2023-04-23T12:27:42;3.23;;;3.07;;
850;SDS011;412;51.400;7.480;2023-04-23T12:30:09;4.10;;;3.80;;
850;SDS011;412;51.400;7.480;2023-04-23T12:32:36;3.37;;;3.27;;
850;SDS011;412;51.400;7.480;2023-04-23T12:35:02;3.00;;;2.80;;
850;SDS011;412;51.400;7.480;2023-04-23T12:37:34;15.53;;;12.13;;
850;SDS011;412;51.400;7.480;2023-04-23T12:40:02;7.70;;;6.82;;
850;SDS011;412;51.400;7.480;2023-04-23T12:42:31;3.33;;;3.13;;
850;SDS011;412;51.400;7.480;2023-04-23T12:45:04;2.83;;;2.63;;
850;SDS011;412;51.400;7.480;2023-04-23T12:47:31;3.23;;;3.03;;
850;SDS011;412;51.400;7.480;2023-04-23T12:49:57;2.70;;;2.50;;
850;SDS011;412;51.400;7.480;2023-04-23T12:52:25;2.70;;;2.60;;
850;SDS011;412;51.400;7.480;2023-04-23T12:54:52;2.57;;;2.47;;
850;SDS011;412;51.400;7.480;2023-04-23T12:57:20;3.20;;;2.90;;
850;SDS011;412;51.400;7.480;2023-04-23T12:59:47;3.57;;;3.27;;
850;SDS011;412;51.400;7.480;2023-04-23T13:02:13;3.43;;;3.23;;
850;SDS011;412;51.400;7.480;2023-04-23T13:04:39;2.80;;;2.70;;
850;SDS011;412;51.400;7.480;2023-04-23T13:07:04;3.50;;;3.20;;
850;SDS011;412;51.400;7.480;2023-04-23T13:09:30;3.20;;;3.00;;
850;SDS011;412;51.400;7.480;2023-04-23T13:11:56;3.00;;;2.80;;
850;SDS011;412;51.400;7.480;2023-04-23T13:14:23;3.50;;;3.27;;
850;SDS011;412;51.400;7.480;2023-04-23T13:16:50;3.20;;;3.00;;
850;SDS011;412;51.400;7.480;2023-04-23T13:19:16;3.23;;;3.00;;
850;SDS011;412;51.400;7.480;2023-04-23T13:21:42;3.20;;;3.00;;
850;SDS011;412;51.400;7.480;2023-04-23T13:24:08;4.20;;;2.90;;
850;SDS011;412;51.400;7.480;2023-04-23T13:26:34;3.33;;;3.23;;
850;SDS011;412;51.400;7.480;2023-04-23T13:29:01;3.03;;;2.83;;
850;SDS011;412;51.400;7.480;2023-04-23T13:31:27;3.00;;;2.80;;
850;SDS011;412;51.400;7.480;2023-04-23T13:33:54;2.53;;;2.43;;
850;SDS011;412;51.400;7.480;2023-04-23T13:36:20;2.70;;;2.60;;
850;SDS011;412;51.400;7.480;2023-04-23T13:38:46;2.53;;;2.43;;
850;SDS011;412;51.400;7.480;2023-04-23T13:41:12;3.33;;;2.40;;
850;SDS011;412;51.400;7.480;2023-04-23T13:43:38;2.47;;;2.37;;
850;SDS011;412;51.400;7.480;2023-04-23T13:46:04;2.53;;;2.40;;
850;SDS011;412;51.400;7.480;2023-04-23T13:48:30;3.00;;;2.83;;
850;SDS011;412;51.400;7.480;2023-04-23T13:50:57;3.40;;;2.80;;
850;SDS011;412;51.400;7.480;2023-04-23T13:53:23;2.40;;;2.30;;
850;SDS011;412;51.400;7.480;2023-04-23T13:55:49;2.77;;;2.67;;
850;SDS011;412;51.400;7.480;2023-04-23T13:58:15;2.50;;;2.40;;
850;SDS011;412;51.400;7.480;2023-04-23T14:00:41;3.20;;;3.00;;
850;SDS011;412;51.400;7.480;2023-04-23T14:03:08;3.20;;;3.00;;
850;SDS011;412;51.400;7.480;2023-04-23T14:05:33;3.10;;;2.90;;
850;SDS011;412;51.400;7.480;2023-04-23T14:07:59;5.80;;;5.30;;
850;SDS011;412;51.400;7.480;2023-04-23T14:10:25;7.63;;;6.43;;
850;SDS011;412;51.400;7.480;2023-04-23T14:12:51;3.20;;;3.00;;
850;SDS011;412;51.400;7.480;2023-04-23T14:15:18;3.07;;;2.90;;
850;SDS011;412;51.400;7.480;2023-04-23T14:17:44;3.37;;;3.17;;
850;SDS011;412;51.400;7.480;2023-04-23T14:20:11;3.10;;;3.00;;
850;SDS011;412;51.400;7.480;2023-04-23T14:22:45;3.43;;;3.33;;
850;SDS011;412;51.400;7.480;2023-04-23T14:25:14;2.77;;;2.67;;
850;SDS011;412;51.400;7.480;2023-04-23T14:27:49;3.27;;;3.17;;
850;SDS011;412;51.400;7.480;2023-04-23T14:30:16;3.17;;;2.90;;
850;SDS011;412;51.400;7.480;2023-04-23T14:32:44;3.20;;;3.10;;
850;SDS011;412;51.400;7.480;2023-04-23T14:35:11;3.30;;;3.00;;
850;SDS011;412;51.400;7.480;2023-04-23T14:37:39;4.03;;;3.83;;
850;SDS011;412;51.400;7.480;2023-04-23T14:40:09;3.00;;;2.80;;
850;SDS011;412;51.400;7.480;2023-04-23T14:42:44;3.03;;;2.83;;
850;SDS011;412;51.400;7.480;2023-04-23T14:45:10;4.03;;;3.30;;
850;SDS011;412;51.400;7.480;2023-04-23T14:47:38;3.23;;;3.03;;
850;SDS011;412;51.400;7.480;2023-04-23T14:50:06;3.50;;;3.30;;
850;SDS011;412;51.400;7.480;2023-04-23T14:52:32;3.60;;;3.40;;
850;SDS011;412;51.400;7.480;2023-04-23T14:54:58;3.20;;;3.10;;
850;SDS011;412;51.400;7.480;2023-04-23T14:57:24;3.60;;;3.40;;
850;SDS011;412;51.400;7.480;2023-04-23T14:59:50;58.27;;;41.83;;
850;SDS011;412;51.400;7.480;2023-04-23T15:02:15;24.57;;;22.20;;
850;SDS011;412;51.400;7.480;2023-04-23T15:04:41;3.40;;;3.20;;
850;SDS011;412;51.400;7.480;2023-04-23T15:07:07;3.73;;;3.43;;
850;SDS011;412;51.400;7.480;2023-04-23T15:09:33;3.10;;;3.00;;
850;SDS011;412;51.400;7.480;2023-04-23T15:11:58;3.27;;;2.97;;
850;SDS011;412;51.400;7.480;2023-04-23T15:14:29;4.60;;;3.80;;
850;SDS011;412;51.400;7.480;2023-04-23T15:16:58;3.37;;;3.17;;
850;SDS011;412;51.400;7.480;2023-04-23T15:19:24;3.50;;;3.30;;
850;SDS011;412;51.400;7.480;2023-04-23T15:21:50;4.70;;;3.80;;
850;SDS011;412;51.400;7.480;2023-04-23T15:24:16;4.40;;;4.00;;
850;SDS011;412;51.400;7.480;2023-04-23T15:26:42;5.43;;;5.03;;
850;SDS011;412;51.400;7.480;2023-04-23T15:29:09;4.27;;;4.03;;
850;SDS011;412;51.400;7.480;2023-04-23T15:31:38;6.00;;;4.07;;
850;SDS011;412;51.400;7.480;2023-04-23T15:34:04;4.03;;;3.83;;
850;SDS011;412;51.400;7.480;2023-04-23T15:36:32;4.50;;;4.10;;
850;SDS011;412;51.400;7.480;2023-04-23T15:38:59;4.60;;;4.33;;